sensor_id;sensor_type;location;lat;lon;timestamp;P1;durP1;ratioP1;P2;durP2;ratioP2
62574;SDS011;70119;45.638;11.714;2024-01-30T00:00:00;19.48;;;13.73;;
62574;SDS011;70119;45.638;11.714;2024-01-30T00:02:26;18.88;;;13.75;;
62574;SDS011;70119;45.638;11.714;2024-01-30T00:04:52;18.15;;;13.40;;
62574;SDS011;70119;45.638;11.714;2024-01-30T00:07:18;19.02;;;13.57;;
62574;SDS011;70119;45.638;11.714;2024-01-30T00:09:46;19.60;;;13.35;;
62574;SDS011;70119;45.638;11.714;2024-01-30T00:12:13;17.70;;;13.20;;
62574;SDS011;70119;45.638;11.714;2024-01-30T00:14:41;20.05;;;13.82;;
62574;SDS011;70119;45.638;11.714;2024-01-30T00:17:08;19.77;;;13.93;;
62574;SDS011;70119;45.638;11.714;2024-01-30T00:19:34;19.13;;;13.95;;
62574;SDS011;70119;45.638;11.714;2024-01-30T00:22:00;19.60;;;14.02;;
62574;SDS011;70119;45.638;11.714;2024-01-30T00:24:26;19.17;;;13.52;;
62574;SDS011;70119;45.638;11.714;2024-01-30T00:26:52;18.90;;;13.77;;
62574;SDS011;70119;45.638;11.714;2024-01-30T00:29:18;19.48;;;13.48;;
62574;SDS011;70119;45.638;11.714;2024-01-30T00:31:45;19.65;;;14.02;;
62574;SDS011;70119;45.638;11.714;2024-01-30T00:34:11;18.38;;;13.50;;
62574;SDS011;70119;45.638;11.714;2024-01-30T00:36:37;17.30;;;13.13;;
62574;SDS011;70119;45.638;11.714;2024-01-30T00:39:03;17.13;;;13.50;;
62574;SDS011;70119;45.638;11.714;2024-01-30T00:41:34;19.30;;;13.90;;
62574;SDS011;70119;45.638;11.714;2024-01-30T00:43:59;17.90;;;13.55;;
62574;SDS011;70119;45.638;11.714;2024-01-30T00:46:25;19.38;;;13.88;;
62574;SDS011;70119;45.638;11.714;2024-01-30T00:48:51;19.48;;;13.85;;
62574;SDS011;70119;45.638;11.714;2024-01-30T00:51:17;19.83;;;14.18;;
62574;SDS011;70119;45.638;11.714;2024-01-30T00:53:43;17.95;;;13.90;;
62574;SDS011;70119;45.638;11.714;2024-01-30T00:56:10;18.85;;;14.38;;
62574;SDS011;70119;45.638;11.714;2024-01-30T00:58:35;18.90;;;13.57;;
62574;SDS011;70119;45.638;11.714;2024-01-30T01:01:01;21.63;;;14.68;;
62574;SDS011;70119;45.638;11.714;2024-01-30T01:03:27;20.00;;;14.13;;
62574;SDS011;70119;45.638;11.714;2024-01-30T01:05:53;18.67;;;14.10;;
62574;SDS011;70119;45.638;11.714;2024-01-30T01:08:19;19.60;;;14.40;;
62574;SDS011;70119;45.638;11.714;2024-01-30T01:10:45;19.40;;;14.00;;
62574;SDS011;70119;45.638;11.714;2024-01-30T01:13:11;18.52;;;14.05;;
62574;SDS011;70119;45.638;11.714;2024-01-30T01:15:37;19.35;;;14.15;;
62574;SDS011;70119;45.638;11.714;2024-01-30T01:18:03;20.45;;;13.93;;
62574;SDS011;70119;45.638;11.714;2024-01-30T01:20:29;20.45;;;13.98;;
62574;SDS011;70119;45.638;11.714;2024-01-30T01:22:54;18.30;;;13.90;;
62574;SDS011;70119;45.638;11.714;2024-01-30T01:25:20;18.17;;;14.60;;
62574;SDS011;70119;45.638;11.714;2024-01-30T01:27:46;18.85;;;13.98;;
62574;SDS011;70119;45.638;11.714;2024-01-30T01:30:16;20.65;;;14.75;;
62574;SDS011;70119;45.638;11.714;2024-01-30T01:32:49;19.60;;;14.02;;
62574;SDS011;70119;45.638;11.714;2024-01-30T01:35:26;20.60;;;14.07;;
62574;SDS011;70119;45.638;11.714;2024-01-30T01:37:53;19.15;;;14.45;;
62574;SDS011;70119;45.638;11.714;2024-01-30T01:40:24;21.45;;;14.73;;
62574;SDS011;70119;45.638;11.714;2024-01-30T01:42:51;20.10;;;14.63;;
62574;SDS011;70119;45.638;11.714;2024-01-30T01:45:18;21.15;;;15.00;;
62574;SDS011;70119;45.638;11.714;2024-01-30T01:47:45;18.95;;;14.43;;
62574;SDS011;70119;45.638;11.714;2024-01-30T01:50:14;21.08;;;14.88;;
62574;SDS011;70119;45.638;11.714;2024-01-30T01:52:43;20.55;;;14.40;;
62574;SDS011;70119;45.638;11.714;2024-01-30T01:55:12;18.60;;;13.90;;
62574;SDS011;70119;45.638;11.714;2024-01-30T01:57:38;20.90;;;14.93;;
62574;SDS011;70119;45.638;11.714;2024-01-30T02:00:04;19.75;;;14.63;;
62574;SDS011;70119;45.638;11.714;2024-01-30T02:02:31;19.98;;;14.40;;
62574;SDS011;70119;45.638;11.714;2024-01-30T02:05:01;21.30;;;16.13;;
62574;SDS011;70119;45.638;11.714;2024-01-30T02:07:27;21.10;;;14.80;;
62574;SDS011;70119;45.638;11.714;2024-01-30T02:09:53;20.05;;;14.85;;
62574;SDS011;70119;45.638;11.714;2024-01-30T02:12:20;19.58;;;14.45;;
62574;SDS011;70119;45.638;11.714;2024-01-30T02:14:46;20.88;;;15.52;;
62574;SDS011;70119;45.638;11.714;2024-01-30T02:17:13;20.10;;;14.88;;
62574;SDS011;70119;45.638;11.714;2024-01-30T02:19:39;20.05;;;15.45;;
62574;SDS011;70119;45.638;11.714;2024-01-30T02:22:05;19.80;;;15.13;;
62574;SDS011;70119;45.638;11.714;2024-01-30T02:24:32;21.17;;;15.35;;
62574;SDS011;70119;45.638;11.714;2024-01-30T02:26:58;19.02;;;14.35;;
62574;SDS011;70119;45.638;11.714;2024-01-30T02:29:24;20.10;;;15.30;;
62574;SDS011;70119;45.638;11.714;2024-01-30T02:31:50;20.65;;;15.23;;
62574;SDS011;70119;45.638;11.714;2024-01-30T02:34:17;20.70;;;14.98;;
62574;SDS011;70119;45.638;11.714;2024-01-30T02:36:44;21.52;;;15.68;;
62574;SDS011;70119;45.638;11.714;2024-01-30T02:39:10;21.27;;;14.88;;
62574;SDS011;70119;45.638;11.714;2024-01-30T02:41:36;19.77;;;14.73;;
62574;SDS011;70119;45.638;11.714;2024-01-30T02:44:02;21.00;;;15.48;;
62574;SDS011;70119;45.638;11.714;2024-01-30T02:46:29;22.17;;;16.08;;
62574;SDS011;70119;45.638;11.714;2024-01-30T02:48:55;20.65;;;15.48;;
62574;SDS011;70119;45.638;11.714;2024-01-30T02:51:21;19.63;;;15.00;;
62574;SDS011;70119;45.638;11.714;2024-01-30T02:53:46;22.45;;;15.77;;
62574;SDS011;70119;45.638;11.714;2024-01-30T02:56:12;20.52;;;15.05;;
62574;SDS011;70119;45.638;11.714;2024-01-30T02:58:39;21.73;;;15.57;;
62574;SDS011;70119;45.638;11.714;2024-01-30T03:01:05;21.58;;;15.98;;
62574;SDS011;70119;45.638;11.714;2024-01-30T03:03:32;22.00;;;15.75;;
62574;SDS011;70119;45.638;11.714;2024-01-30T03:06:00;20.17;;;14.82;;
62574;SDS011;70119;45.638;11.714;2024-01-30T03:08:26;21.45;;;15.75;;
62574;SDS011;70119;45.638;11.714;2024-01-30T03:10:53;19.40;;;15.32;;
62574;SDS011;70119;45.638;11.714;2024-01-30T03:13:18;21.10;;;15.85;;
62574;SDS011;70119;45.638;11.714;2024-01-30T03:15:44;20.33;;;15.00;;
62574;SDS011;70119;45.638;11.714;2024-01-30T03:18:10;22.13;;;15.63;;
62574;SDS011;70119;45.638;11.714;2024-01-30T03:20:36;21.20;;;15.70;;
62574;SDS011;70119;45.638;11.714;2024-01-30T03:23:02;22.88;;;16.20;;
62574;SDS011;70119;45.638;11.714;2024-01-30T03:25:28;21.77;;;16.23;;
62574;SDS011;70119;45.638;11.714;2024-01-30T03:27:54;21.42;;;15.57;;
62574;SDS011;70119;45.638;11.714;2024-01-30T03:30:20;20.13;;;15.00;;
62574;SDS011;70119;45.638;11.714;2024-01-30T03:32:46;21.20;;;15.50;;
62574;SDS011;70119;45.638;11.714;2024-01-30T03:35:11;22.15;;;15.93;;
62574;SDS011;70119;45.638;11.714;2024-01-30T03:37:37;20.77;;;15.43;;
62574;SDS011;70119;45.638;11.714;2024-01-30T03:40:03;22.50;;;16.48;;
62574;SDS011;70119;45.638;11.714;2024-01-30T03:42:30;21.08;;;16.13;;
62574;SDS011;70119;45.638;11.714;2024-01-30T03:44:56;21.25;;;15.88;;
62574;SDS011;70119;45.638;11.714;2024-01-30T03:47:22;22.15;;;16.38;;
62574;SDS011;70119;45.638;11.714;2024-01-30T03:49:48;20.67;;;15.45;;
62574;SDS011;70119;45.638;11.714;2024-01-30T03:52:13;21.25;;;15.80;;
62574;SDS011;70119;45.638;11.714;2024-01-30T03:54:39;21.08;;;15.70;;
62574;SDS011;70119;45.638;11.714;2024-01-30T03:57:05;21.35;;;15.27;;
62574;SDS011;70119;45.638;11.714;2024-01-30T03:59:31;19.98;;;15.73;;
62574;SDS011;70119;45.638;11.714;2024-01-30T04:01:57;21.08;;;15.68;;
62574;SDS011;70119;45.638;11.714;2024-01-30T04:04:23;21.45;;;15.55;;
62574;SDS011;70119;45.638;11.714;2024-01-30T04:06:49;21.30;;;15.68;;
62574;SDS011;70119;45.638;11.714;2024-01-30T04:09:14;20.92;;;15.50;;
62574;SDS011;70119;45.638;11.714;2024-01-30T04:11:41;21.88;;;15.95;;
62574;SDS011;70119;45.638;11.714;2024-01-30T04:14:07;22.23;;;16.05;;
62574;SDS011;70119;45.638;11.714;2024-01-30T04:16:33;21.77;;;15.48;;
62574;SDS011;70119;45.638;11.714;2024-01-30T04:18:59;22.15;;;16.42;;
62574;SDS011;70119;45.638;11.714;2024-01-30T04:21:25;21.52;;;15.95;;
62574;SDS011;70119;45.638;11.714;2024-01-30T04:23:51;22.65;;;16.13;;
62574;SDS011;70119;45.638;11.714;2024-01-30T04:26:18;22.25;;;15.82;;
62574;SDS011;70119;45.638;11.714;2024-01-30T04:28:44;21.02;;;15.98;;
62574;SDS011;70119;45.638;11.714;2024-01-30T04:31:10;21.25;;;16.23;;
62574;SDS011;70119;45.638;11.714;2024-01-30T04:33:37;22.98;;;15.85;;
62574;SDS011;70119;45.638;11.714;2024-01-30T04:36:03;22.42;;;16.35;;
62574;SDS011;70119;45.638;11.714;2024-01-30T04:38:30;21.55;;;16.35;;
62574;SDS011;70119;45.638;11.714;2024-01-30T04:40:56;20.60;;;15.15;;
62574;SDS011;70119;45.638;11.714;2024-01-30T04:43:22;21.45;;;16.35;;
62574;SDS011;70119;45.638;11.714;2024-01-30T04:45:49;22.77;;;16.20;;
62574;SDS011;70119;45.638;11.714;2024-01-30T04:48:15;22.45;;;16.33;;
62574;SDS011;70119;45.638;11.714;2024-01-30T04:50:41;22.30;;;16.42;;
62574;SDS011;70119;45.638;11.714;2024-01-30T04:53:07;22.30;;;16.40;;
62574;SDS011;70119;45.638;11.714;2024-01-30T04:55:33;22.65;;;16.02;;
62574;SDS011;70119;45.638;11.714;2024-01-30T04:58:00;22.80;;;16.45;;
62574;SDS011;70119;45.638;11.714;2024-01-30T05:00:26;22.45;;;16.63;;
62574;SDS011;70119;45.638;11.714;2024-01-30T05:02:52;21.83;;;16.05;;
62574;SDS011;70119;45.638;11.714;2024-01-30T05:05:19;21.55;;;16.08;;
62574;SDS011;70119;45.638;11.714;2024-01-30T05:07:46;20.38;;;15.98;;
62574;SDS011;70119;45.638;11.714;2024-01-30T05:10:13;22.10;;;16.08;;
62574;SDS011;70119;45.638;11.714;2024-01-30T05:12:39;22.38;;;16.10;;
62574;SDS011;70119;45.638;11.714;2024-01-30T05:15:06;22.95;;;16.73;;
62574;SDS011;70119;45.638;11.714;2024-01-30T05:17:32;22.15;;;16.25;;
62574;SDS011;70119;45.638;11.714;2024-01-30T05:19:58;22.73;;;16.65;;
62574;SDS011;70119;45.638;11.714;2024-01-30T05:22:24;21.98;;;16.15;;
62574;SDS011;70119;45.638;11.714;2024-01-30T05:24:50;21.52;;;16.05;;
62574;SDS011;70119;45.638;11.714;2024-01-30T05:27:16;22.60;;;17.02;;
62574;SDS011;70119;45.638;11.714;2024-01-30T05:29:41;20.67;;;15.68;;
62574;SDS011;70119;45.638;11.714;2024-01-30T05:32:07;22.90;;;16.73;;
62574;SDS011;70119;45.638;11.714;2024-01-30T05:34:33;25.95;;;16.60;;
62574;SDS011;70119;45.638;11.714;2024-01-30T05:37:00;22.48;;;15.93;;
62574;SDS011;70119;45.638;11.714;2024-01-30T05:39:26;22.45;;;16.50;;
62574;SDS011;70119;45.638;11.714;2024-01-30T05:41:52;20.95;;;16.05;;
62574;SDS011;70119;45.638;11.714;2024-01-30T05:44:17;21.67;;;16.08;;
62574;SDS011;70119;45.638;11.714;2024-01-30T05:46:43;20.58;;;16.27;;
62574;SDS011;70119;45.638;11.714;2024-01-30T05:49:09;23.65;;;16.58;;
62574;SDS011;70119;45.638;11.714;2024-01-30T05:51:35;21.27;;;15.82;;
62574;SDS011;70119;45.638;11.714;2024-01-30T05:54:01;22.77;;;16.10;;
62574;SDS011;70119;45.638;11.714;2024-01-30T05:56:28;21.35;;;15.85;;
62574;SDS011;70119;45.638;11.714;2024-01-30T05:58:54;22.10;;;16.45;;
62574;SDS011;70119;45.638;11.714;2024-01-30T06:01:20;22.60;;;16.33;;
62574;SDS011;70119;45.638;11.714;2024-01-30T06:03:46;22.90;;;16.58;;
62574;SDS011;70119;45.638;11.714;2024-01-30T06:06:12;22.70;;;16.50;;
62574;SDS011;70119;45.638;11.714;2024-01-30T06:08:38;22.90;;;16.85;;
62574;SDS011;70119;45.638;11.714;2024-01-30T06:11:04;20.58;;;15.80;;
62574;SDS011;70119;45.638;11.714;2024-01-30T06:13:29;22.05;;;16.30;;
62574;SDS011;70119;45.638;11.714;2024-01-30T06:15:57;21.90;;;16.55;;
62574;SDS011;70119;45.638;11.714;2024-01-30T06:18:23;22.27;;;16.10;;
62574;SDS011;70119;45.638;11.714;2024-01-30T06:20:49;20.90;;;16.02;;
62574;SDS011;70119;45.638;11.714;2024-01-30T06:23:14;22.42;;;16.20;;
62574;SDS011;70119;45.638;11.714;2024-01-30T06:25:40;22.17;;;16.10;;
62574;SDS011;70119;45.638;11.714;2024-01-30T06:28:06;21.35;;;16.23;;
62574;SDS011;70119;45.638;11.714;2024-01-30T06:30:33;22.73;;;16.40;;
62574;SDS011;70119;45.638;11.714;2024-01-30T06:32:59;21.65;;;16.63;;
62574;SDS011;70119;45.638;11.714;2024-01-30T06:35:25;19.27;;;15.25;;
62574;SDS011;70119;45.638;11.714;2024-01-30T06:37:51;20.63;;;16.13;;
62574;SDS011;70119;45.638;11.714;2024-01-30T06:40:17;20.55;;;15.68;;
62574;SDS011;70119;45.638;11.714;2024-01-30T06:42:43;21.02;;;16.13;;
62574;SDS011;70119;45.638;11.714;2024-01-30T06:45:09;21.42;;;15.57;;
62574;SDS011;70119;45.638;11.714;2024-01-30T06:47:35;20.35;;;15.25;;
62574;SDS011;70119;45.638;11.714;2024-01-30T06:50:01;20.75;;;15.50;;
62574;SDS011;70119;45.638;11.714;2024-01-30T06:52:28;22.85;;;15.50;;
62574;SDS011;70119;45.638;11.714;2024-01-30T06:54:54;21.02;;;15.75;;
62574;SDS011;70119;45.638;11.714;2024-01-30T06:57:20;19.88;;;14.73;;
62574;SDS011;70119;45.638;11.714;2024-01-30T06:59:46;21.60;;;15.88;;
62574;SDS011;70119;45.638;11.714;2024-01-30T07:02:12;19.65;;;15.02;;
62574;SDS011;70119;45.638;11.714;2024-01-30T07:04:38;20.15;;;15.25;;
62574;SDS011;70119;45.638;11.714;2024-01-30T07:07:05;20.35;;;15.20;;
62574;SDS011;70119;45.638;11.714;2024-01-30T07:09:31;20.80;;;15.43;;
62574;SDS011;70119;45.638;11.714;2024-01-30T07:11:57;19.88;;;15.45;;
62574;SDS011;70119;45.638;11.714;2024-01-30T07:14:25;20.17;;;15.38;;
62574;SDS011;70119;45.638;11.714;2024-01-30T07:16:51;19.25;;;14.57;;
62574;SDS011;70119;45.638;11.714;2024-01-30T07:19:17;20.42;;;15.57;;
62574;SDS011;70119;45.638;11.714;2024-01-30T07:21:44;19.88;;;15.25;;
62574;SDS011;70119;45.638;11.714;2024-01-30T07:24:11;18.08;;;14.10;;
62574;SDS011;70119;45.638;11.714;2024-01-30T07:26:37;20.33;;;15.13;;
62574;SDS011;70119;45.638;11.714;2024-01-30T07:29:03;24.70;;;14.68;;
62574;SDS011;70119;45.638;11.714;2024-01-30T07:31:29;20.95;;;15.32;;
62574;SDS011;70119;45.638;11.714;2024-01-30T07:33:54;20.95;;;14.13;;
62574;SDS011;70119;45.638;11.714;2024-01-30T07:36:20;20.00;;;15.30;;
62574;SDS011;70119;45.638;11.714;2024-01-30T07:38:46;21.17;;;15.25;;
62574;SDS011;70119;45.638;11.714;2024-01-30T07:41:12;21.23;;;14.45;;
62574;SDS011;70119;45.638;11.714;2024-01-30T07:43:38;21.25;;;14.77;;
62574;SDS011;70119;45.638;11.714;2024-01-30T07:46:04;20.60;;;14.30;;
62574;SDS011;70119;45.638;11.714;2024-01-30T07:48:35;21.90;;;15.07;;
62574;SDS011;70119;45.638;11.714;2024-01-30T07:51:03;22.87;;;15.20;;
62574;SDS011;70119;45.638;11.714;2024-01-30T07:53:32;21.92;;;15.13;;
62574;SDS011;70119;45.638;11.714;2024-01-30T07:55:58;20.48;;;14.95;;
62574;SDS011;70119;45.638;11.714;2024-01-30T07:58:28;20.00;;;14.88;;
62574;SDS011;70119;45.638;11.714;2024-01-30T08:00:54;22.00;;;15.30;;
62574;SDS011;70119;45.638;11.714;2024-01-30T08:03:23;21.35;;;14.90;;
62574;SDS011;70119;45.638;11.714;2024-01-30T08:05:49;20.00;;;15.65;;
62574;SDS011;70119;45.638;11.714;2024-01-30T08:08:15;21.83;;;15.48;;
62574;SDS011;70119;45.638;11.714;2024-01-30T08:10:41;21.05;;;15.38;;
62574;SDS011;70119;45.638;11.714;2024-01-30T08:13:07;19.55;;;15.00;;
62574;SDS011;70119;45.638;11.714;2024-01-30T08:15:34;20.35;;;15.07;;
62574;SDS011;70119;45.638;11.714;2024-01-30T08:18:00;22.55;;;15.18;;
62574;SDS011;70119;45.638;11.714;2024-01-30T08:20:26;21.73;;;15.38;;
62574;SDS011;70119;45.638;11.714;2024-01-30T08:22:52;19.35;;;14.80;;
62574;SDS011;70119;45.638;11.714;2024-01-30T08:25:18;21.05;;;14.40;;
62574;SDS011;70119;45.638;11.714;2024-01-30T08:27:44;20.83;;;15.07;;
62574;SDS011;70119;45.638;11.714;2024-01-30T08:30:10;21.08;;;14.48;;
62574;SDS011;70119;45.638;11.714;2024-01-30T08:32:36;22.85;;;15.35;;
62574;SDS011;70119;45.638;11.714;2024-01-30T08:35:02;20.83;;;15.65;;
62574;SDS011;70119;45.638;11.714;2024-01-30T08:37:29;20.27;;;14.73;;
62574;SDS011;70119;45.638;11.714;2024-01-30T08:39:55;18.77;;;14.75;;
62574;SDS011;70119;45.638;11.714;2024-01-30T08:42:22;21.95;;;15.15;;
62574;SDS011;70119;45.638;11.714;2024-01-30T08:44:53;18.85;;;14.35;;
62574;SDS011;70119;45.638;11.714;2024-01-30T08:47:19;20.33;;;14.23;;
62574;SDS011;70119;45.638;11.714;2024-01-30T08:49:45;19.45;;;14.80;;
62574;SDS011;70119;45.638;11.714;2024-01-30T08:52:12;19.85;;;15.15;;
62574;SDS011;70119;45.638;11.714;2024-01-30T08:54:38;19.58;;;14.10;;
62574;SDS011;70119;45.638;11.714;2024-01-30T08:57:04;19.88;;;14.93;;
62574;SDS011;70119;45.638;11.714;2024-01-30T08:59:30;19.42;;;14.73;;
62574;SDS011;70119;45.638;11.714;2024-01-30T09:01:56;17.63;;;13.63;;
62574;SDS011;70119;45.638;11.714;2024-01-30T09:04:23;19.50;;;13.45;;
62574;SDS011;70119;45.638;11.714;2024-01-30T09:06:49;19.83;;;13.45;;
62574;SDS011;70119;45.638;11.714;2024-01-30T09:09:15;17.75;;;13.10;;
62574;SDS011;70119;45.638;11.714;2024-01-30T09:11:41;17.55;;;13.60;;
62574;SDS011;70119;45.638;11.714;2024-01-30T09:14:08;16.50;;;12.48;;
62574;SDS011;70119;45.638;11.714;2024-01-30T09:16:34;18.58;;;12.90;;
62574;SDS011;70119;45.638;11.714;2024-01-30T09:19:00;17.25;;;13.32;;
62574;SDS011;70119;45.638;11.714;2024-01-30T09:21:27;16.80;;;12.90;;
62574;SDS011;70119;45.638;11.714;2024-01-30T09:23:54;16.67;;;13.05;;
62574;SDS011;70119;45.638;11.714;2024-01-30T09:26:26;16.95;;;13.02;;
62574;SDS011;70119;45.638;11.714;2024-01-30T09:28:52;15.40;;;12.27;;
62574;SDS011;70119;45.638;11.714;2024-01-30T09:31:18;17.10;;;13.13;;
62574;SDS011;70119;45.638;11.714;2024-01-30T09:33:43;17.83;;;12.65;;
62574;SDS011;70119;45.638;11.714;2024-01-30T09:36:12;16.10;;;12.40;;
62574;SDS011;70119;45.638;11.714;2024-01-30T09:38:40;17.08;;;12.65;;
62574;SDS011;70119;45.638;11.714;2024-01-30T09:41:08;16.98;;;12.73;;
62574;SDS011;70119;45.638;11.714;2024-01-30T09:43:38;16.23;;;12.57;;
62574;SDS011;70119;45.638;11.714;2024-01-30T09:46:05;16.20;;;12.15;;
62574;SDS011;70119;45.638;11.714;2024-01-30T09:48:33;16.13;;;12.10;;
62574;SDS011;70119;45.638;11.714;2024-01-30T09:51:00;16.75;;;12.50;;
62574;SDS011;70119;45.638;11.714;2024-01-30T09:53:27;16.77;;;12.13;;
62574;SDS011;70119;45.638;11.714;2024-01-30T09:55:53;16.52;;;12.50;;
62574;SDS011;70119;45.638;11.714;2024-01-30T09:58:18;16.25;;;12.65;;
62574;SDS011;70119;45.638;11.714;2024-01-30T10:00:44;16.92;;;12.02;;
62574;SDS011;70119;45.638;11.714;2024-01-30T10:03:10;14.98;;;11.77;;
62574;SDS011;70119;45.638;11.714;2024-01-30T10:05:36;17.48;;;12.00;;
62574;SDS011;70119;45.638;11.714;2024-01-30T10:08:05;15.73;;;12.07;;
62574;SDS011;70119;45.638;11.714;2024-01-30T10:10:35;16.73;;;11.95;;
62574;SDS011;70119;45.638;11.714;2024-01-30T10:13:01;16.02;;;12.27;;
62574;SDS011;70119;45.638;11.714;2024-01-30T10:15:27;16.70;;;12.07;;
62574;SDS011;70119;45.638;11.714;2024-01-30T10:17:54;16.63;;;12.10;;
62574;SDS011;70119;45.638;11.714;2024-01-30T10:20:20;15.90;;;11.90;;
62574;SDS011;70119;45.638;11.714;2024-01-30T10:22:48;15.05;;;11.90;;
62574;SDS011;70119;45.638;11.714;2024-01-30T10:25:17;16.15;;;12.38;;
62574;SDS011;70119;45.638;11.714;2024-01-30T10:27:43;15.85;;;12.02;;
62574;SDS011;70119;45.638;11.714;2024-01-30T10:30:09;17.02;;;12.55;;
62574;SDS011;70119;45.638;11.714;2024-01-30T10:32:35;19.65;;;12.38;;
62574;SDS011;70119;45.638;11.714;2024-01-30T10:35:01;16.58;;;12.07;;
62574;SDS011;70119;45.638;11.714;2024-01-30T10:37:27;17.05;;;12.10;;
62574;SDS011;70119;45.638;11.714;2024-01-30T10:39:57;19.45;;;11.85;;
62574;SDS011;70119;45.638;11.714;2024-01-30T10:42:30;17.20;;;12.32;;
62574;SDS011;70119;45.638;11.714;2024-01-30T10:45:08;15.48;;;11.98;;
62574;SDS011;70119;45.638;11.714;2024-01-30T10:47:39;14.65;;;11.82;;
62574;SDS011;70119;45.638;11.714;2024-01-30T10:50:18;16.10;;;11.60;;
62574;SDS011;70119;45.638;11.714;2024-01-30T10:52:45;14.93;;;11.52;;
62574;SDS011;70119;45.638;11.714;2024-01-30T10:55:12;16.20;;;11.23;;
62574;SDS011;70119;45.638;11.714;2024-01-30T10:57:40;16.00;;;11.50;;
62574;SDS011;70119;45.638;11.714;2024-01-30T11:00:10;14.70;;;11.00;;
62574;SDS011;70119;45.638;11.714;2024-01-30T11:02:44;16.25;;;11.70;;
62574;SDS011;70119;45.638;11.714;2024-01-30T11:05:12;16.27;;;11.30;;
62574;SDS011;70119;45.638;11.714;2024-01-30T11:07:40;15.35;;;10.93;;
62574;SDS011;70119;45.638;11.714;2024-01-30T11:10:06;14.65;;;11.18;;
62574;SDS011;70119;45.638;11.714;2024-01-30T11:12:37;13.60;;;10.75;;
62574;SDS011;70119;45.638;11.714;2024-01-30T11:15:09;15.13;;;11.07;;
62574;SDS011;70119;45.638;11.714;2024-01-30T11:20:19;15.45;;;11.48;;
62574;SDS011;70119;45.638;11.714;2024-01-30T11:23:01;15.75;;;10.75;;
62574;SDS011;70119;45.638;11.714;2024-01-30T11:25:31;14.93;;;10.90;;
62574;SDS011;70119;45.638;11.714;2024-01-30T11:27:57;15.23;;;10.75;;
62574;SDS011;70119;45.638;11.714;2024-01-30T11:30:26;14.93;;;10.77;;
62574;SDS011;70119;45.638;11.714;2024-01-30T11:35:36;13.75;;;10.32;;
62574;SDS011;70119;45.638;11.714;2024-01-30T11:38:13;13.48;;;9.82;;
62574;SDS011;70119;45.638;11.714;2024-01-30T11:40:40;13.25;;;10.05;;
62574;SDS011;70119;45.638;11.714;2024-01-30T11:43:07;14.02;;;9.68;;
62574;SDS011;70119;45.638;11.714;2024-01-30T11:45:34;15.10;;;10.68;;
62574;SDS011;70119;45.638;11.714;2024-01-30T11:48:01;14.50;;;10.02;;
62574;SDS011;70119;45.638;11.714;2024-01-30T11:50:31;14.18;;;9.65;;
62574;SDS011;70119;45.638;11.714;2024-01-30T11:52:59;14.55;;;10.68;;
62574;SDS011;70119;45.638;11.714;2024-01-30T11:55:25;14.73;;;10.98;;
62574;SDS011;70119;45.638;11.714;2024-01-30T11:57:54;14.57;;;10.48;;
62574;SDS011;70119;45.638;11.714;2024-01-30T12:00:21;13.90;;;9.63;;
62574;SDS011;70119;45.638;11.714;2024-01-30T12:02:50;13.90;;;9.82;;
62574;SDS011;70119;45.638;11.714;2024-01-30T12:05:20;14.77;;;10.73;;
62574;SDS011;70119;45.638;11.714;2024-01-30T12:07:47;12.63;;;9.50;;
62574;SDS011;70119;45.638;11.714;2024-01-30T12:10:13;17.02;;;12.05;;
62574;SDS011;70119;45.638;11.714;2024-01-30T12:12:46;16.48;;;11.45;;
62574;SDS011;70119;45.638;11.714;2024-01-30T12:15:15;18.85;;;13.02;;
62574;SDS011;70119;45.638;11.714;2024-01-30T12:17:43;15.63;;;11.82;;
62574;SDS011;70119;45.638;11.714;2024-01-30T12:20:10;17.58;;;11.95;;
62574;SDS011;70119;45.638;11.714;2024-01-30T12:22:38;19.33;;;13.25;;
62574;SDS011;70119;45.638;11.714;2024-01-30T12:25:08;17.98;;;12.15;;
62574;SDS011;70119;45.638;11.714;2024-01-30T12:27:35;20.13;;;13.82;;
62574;SDS011;70119;45.638;11.714;2024-01-30T12:30:08;14.85;;;9.95;;
62574;SDS011;70119;45.638;11.714;2024-01-30T12:32:42;15.02;;;10.68;;
62574;SDS011;70119;45.638;11.714;2024-01-30T12:35:13;16.13;;;11.73;;
62574;SDS011;70119;45.638;11.714;2024-01-30T12:37:45;18.90;;;12.80;;
62574;SDS011;70119;45.638;11.714;2024-01-30T12:40:13;15.60;;;11.20;;
62574;SDS011;70119;45.638;11.714;2024-01-30T12:42:41;15.43;;;10.75;;
62574;SDS011;70119;45.638;11.714;2024-01-30T12:45:08;19.55;;;11.48;;
62574;SDS011;70119;45.638;11.714;2024-01-30T12:47:34;16.23;;;11.02;;
62574;SDS011;70119;45.638;11.714;2024-01-30T12:50:01;16.67;;;11.10;;
62574;SDS011;70119;45.638;11.714;2024-01-30T12:52:28;13.77;;;10.10;;
62574;SDS011;70119;45.638;11.714;2024-01-30T12:54:57;15.27;;;10.63;;
62574;SDS011;70119;45.638;11.714;2024-01-30T12:57:22;14.85;;;10.63;;
62574;SDS011;70119;45.638;11.714;2024-01-30T12:59:48;13.07;;;9.13;;
62574;SDS011;70119;45.638;11.714;2024-01-30T13:02:14;13.30;;;9.30;;
62574;SDS011;70119;45.638;11.714;2024-01-30T13:04:41;12.85;;;8.95;;
62574;SDS011;70119;45.638;11.714;2024-01-30T13:07:08;16.17;;;11.32;;
62574;SDS011;70119;45.638;11.714;2024-01-30T13:09:33;15.35;;;10.75;;
62574;SDS011;70119;45.638;11.714;2024-01-30T13:11:59;17.33;;;8.82;;
62574;SDS011;70119;45.638;11.714;2024-01-30T13:14:25;14.43;;;9.75;;
62574;SDS011;70119;45.638;11.714;2024-01-30T13:16:52;14.38;;;10.02;;
62574;SDS011;70119;45.638;11.714;2024-01-30T13:19:18;15.38;;;10.70;;
62574;SDS011;70119;45.638;11.714;2024-01-30T13:21:43;14.02;;;9.90;;
62574;SDS011;70119;45.638;11.714;2024-01-30T13:24:09;17.77;;;11.95;;
62574;SDS011;70119;45.638;11.714;2024-01-30T13:26:36;17.85;;;11.38;;
62574;SDS011;70119;45.638;11.714;2024-01-30T13:29:02;16.45;;;11.43;;
62574;SDS011;70119;45.638;11.714;2024-01-30T13:31:28;18.42;;;12.52;;
62574;SDS011;70119;45.638;11.714;2024-01-30T13:33:55;16.42;;;10.85;;
62574;SDS011;70119;45.638;11.714;2024-01-30T13:36:21;16.33;;;10.90;;
62574;SDS011;70119;45.638;11.714;2024-01-30T13:38:47;15.10;;;9.40;;
62574;SDS011;70119;45.638;11.714;2024-01-30T13:41:13;13.18;;;8.70;;
62574;SDS011;70119;45.638;11.714;2024-01-30T13:43:39;14.25;;;9.48;;
62574;SDS011;70119;45.638;11.714;2024-01-30T13:46:05;13.05;;;9.00;;
62574;SDS011;70119;45.638;11.714;2024-01-30T13:48:31;15.07;;;9.65;;
62574;SDS011;70119;45.638;11.714;2024-01-30T13:50:56;12.63;;;8.60;;
62574;SDS011;70119;45.638;11.714;2024-01-30T13:53:22;15.70;;;9.98;;
62574;SDS011;70119;45.638;11.714;2024-01-30T13:55:48;14.15;;;9.30;;
62574;SDS011;70119;45.638;11.714;2024-01-30T13:58:14;11.73;;;8.73;;
62574;SDS011;70119;45.638;11.714;2024-01-30T14:00:40;13.27;;;8.70;;
62574;SDS011;70119;45.638;11.714;2024-01-30T14:03:06;13.50;;;9.13;;
62574;SDS011;70119;45.638;11.714;2024-01-30T14:05:32;12.20;;;8.15;;
62574;SDS011;70119;45.638;11.714;2024-01-30T14:07:58;12.93;;;8.68;;
62574;SDS011;70119;45.638;11.714;2024-01-30T14:10:25;11.98;;;8.30;;
62574;SDS011;70119;45.638;11.714;2024-01-30T14:12:51;12.25;;;8.10;;